Time;durP1;ratioP1;P1;durP2;ratioP2;P2;SDS_P1;SDS_P2;PMS_P1;PMS_P2;Temp;Humidity;BMP_temperature;BMP_pressure;BME280_temperature;BME280_humidity;BME280_pressure;Samples;Min_cycle;Max_cycle;Signal;HPM_P1;HPM_P2
2021/09/14 00:00:43;;;;;;;;;;;15.00;99.90;;;;;;5072620;28;19922;-74
2021/09/14 00:03:09;;;;;;;;;;;15.00;99.90;;;;;;5072254;28;20200;-74
2021/09/14 00:05:34;;;;;;;;;;;15.00;99.90;;;;;;5071072;28;19916;-74
2021/09/14 00:08:00;;;;;;;;;;;15.00;99.90;;;;;;5071691;28;19959;-75
2021/09/14 00:10:25;;;;;;;;;;;15.00;99.90;;;;;;5052439;28;20383;-75
2021/09/14 00:12:51;;;;;;;;;;;15.00;99.90;;;;;;5068668;28;20590;-74
2021/09/14 00:15:17;;;;;;;;;;;15.00;99.90;;;;;;5067188;28;19917;-75
2021/09/14 00:17:42;;;;;;;;;;;14.90;99.90;;;;;;5055217;28;19912;-74
2021/09/14 00:20:08;;;;;;;;;;;14.90;99.90;;;;;;5073679;28;19917;-74
2021/09/14 00:22:34;;;;;;;;;;;14.80;99.90;;;;;;5072957;28;19912;-74
2021/09/14 00:24:59;;;;;;;;;;;14.80;99.90;;;;;;5069453;28;19920;-75
2021/09/14 00:27:25;;;;;;;;;;;14.80;99.90;;;;;;5070740;28;20300;-75
2021/09/14 00:29:50;;;;;;;;;;;14.80;99.90;;;;;;5070202;28;19948;-74
2021/09/14 00:32:16;;;;;;;;;;;14.80;99.90;;;;;;5068998;28;19920;-75
2021/09/14 00:34:42;;;;;;;;;;;14.80;99.90;;;;;;5069096;28;19932;-75
2021/09/14 00:37:07;;;;;;;;;;;14.80;99.90;;;;;;5071452;28;19921;-75
2021/09/14 00:39:33;;;;;;;;;;;14.70;99.90;;;;;;5070909;28;20331;-74
2021/09/14 00:41:58;;;;;;;;;;;14.70;99.90;;;;;;5073152;28;19912;-74
2021/09/14 00:44:24;;;;;;;;;;;14.80;99.90;;;;;;5072036;28;19917;-75
2021/09/14 00:46:49;;;;;;;;;;;14.80;99.90;;;;;;5067903;28;20050;-74
2021/09/14 00:49:15;;;;;;;;;;;14.70;99.90;;;;;;5066805;28;19921;-74
2021/09/14 00:51:41;;;;;;;;;;;14.70;99.90;;;;;;5050880;28;19916;-74
2021/09/14 00:54:13;;;;;;;;;;;14.70;99.90;;;;;;5067584;28;19966;-75
2021/09/14 00:56:39;;;;;;;;;;;14.70;99.90;;;;;;5068409;28;19926;-74
2021/09/14 00:59:05;;;;;;;;;;;14.70;99.90;;;;;;5050765;28;19935;-75
2021/09/14 01:01:31;;;;;;;;;;;14.70;99.90;;;;;;5052277;28;20326;-74
2021/09/14 01:03:56;;;;;;;;;;;14.70;99.90;;;;;;5069849;28;19908;-74
2021/09/14 01:06:22;;;;;;;;;;;14.60;99.90;;;;;;5069927;28;19913;-74
2021/09/14 01:08:47;;;;;;;;;;;14.60;99.90;;;;;;5069104;28;20264;-74
2021/09/14 01:11:13;;;;;;;;;;;14.60;99.90;;;;;;5070500;28;19923;-74
2021/09/14 01:13:39;;;;;;;;;;;14.60;99.90;;;;;;5069378;28;19921;-74
2021/09/14 01:16:05;;;;;;;;;;;14.60;99.90;;;;;;5068170;28;19924;-74
2021/09/14 01:18:31;;;;;;;;;;;14.60;99.90;;;;;;5066755;28;19944;-74
2021/09/14 01:20:57;;;;;;;;;;;14.60;99.90;;;;;;5069097;28;19960;-74
2021/09/14 01:23:22;;;;;;;;;;;14.60;99.90;;;;;;5070120;28;19908;-74
2021/09/14 01:25:48;;;;;;;;;;;14.50;99.90;;;;;;5069899;28;19917;-75
2021/09/14 01:28:13;;;;;;;;;;;14.50;99.90;;;;;;5067005;28;19921;-74
2021/09/14 01:30:39;;;;;;;;;;;14.50;99.90;;;;;;5047647;28;21299;-75
2021/09/14 01:33:04;;;;;;;;;;;14.50;99.90;;;;;;5063836;28;19920;-75
2021/09/14 01:35:31;;;;;;;;;;;14.50;99.90;;;;;;5066336;28;19935;-74
2021/09/14 01:37:57;;;;;;;;;;;14.50;99.90;;;;;;5062464;28;19931;-74
2021/09/14 01:40:24;;;;;;;;;;;14.50;99.90;;;;;;5064377;28;19971;-74
2021/09/14 01:42:49;;;;;;;;;;;14.50;99.90;;;;;;5046992;28;19928;-74
2021/09/14 01:45:15;;;;;;;;;;;14.40;99.90;;;;;;5065058;28;19917;-74
2021/09/14 01:47:41;;;;;;;;;;;14.40;99.90;;;;;;5066318;28;21092;-74
2021/09/14 01:50:08;;;;;;;;;;;14.40;99.90;;;;;;5064080;28;20688;-74
2021/09/14 01:52:34;;;;;;;;;;;14.40;99.90;;;;;;5047885;28;19922;-74
2021/09/14 01:55:04;;;;;;;;;;;14.40;99.90;;;;;;5062955;28;19920;-74
2021/09/14 01:57:33;;;;;;;;;;;14.40;99.90;;;;;;5063209;28;19935;-74
2021/09/14 02:00:01;;;;;;;;;;;14.40;99.90;;;;;;5063103;28;20420;-74
2021/09/14 02:08:15;;;;;;;;;;;14.40;99.90;;;;;;5062941;28;20331;-74
2021/09/14 02:59:36;;;;;;;;;;;14.40;99.90;;;;;;5071683;28;19916;-74
2021/09/14 03:02:02;;;;;;;;;;;14.40;99.90;;;;;;5073708;28;19913;-74
2021/09/14 03:04:28;;;;;;;;;;;14.50;99.90;;;;;;5052363;28;20019;-74
2021/09/14 03:06:54;;;;;;;;;;;14.40;99.90;;;;;;5051928;28;19948;-74
2021/09/14 03:09:19;;;;;;;;;;;14.40;99.90;;;;;;5070514;28;19943;-73
2021/09/14 03:11:45;;;;;;;;;;;14.50;99.90;;;;;;5055368;28;19920;-74
2021/09/14 03:14:11;;;;;;;;;;;14.40;99.90;;;;;;5073295;28;19970;-74
2021/09/14 03:16:36;;;;;;;;;;;14.40;99.90;;;;;;5070058;28;19916;-73
2021/09/14 03:19:02;;;;;;;;;;;14.40;99.90;;;;;;5072309;28;19955;-74
2021/09/14 03:21:28;;;;;;;;;;;14.40;99.90;;;;;;5071138;28;20315;-74
2021/09/14 03:23:54;;;;;;;;;;;14.40;99.90;;;;;;5052170;28;19916;-74
2021/09/14 03:26:19;;;;;;;;;;;14.40;99.90;;;;;;5069330;28;20300;-74
2021/09/14 03:28:45;;;;;;;;;;;14.40;99.90;;;;;;5073847;28;19920;-74
2021/09/14 03:31:10;;;;;;;;;;;14.40;99.90;;;;;;5053543;28;20402;-74
2021/09/14 03:33:36;;;;;;;;;;;14.40;99.90;;;;;;5069810;28;19999;-74
2021/09/14 03:36:02;;;;;;;;;;;14.50;99.90;;;;;;5070479;28;19920;-74
2021/09/14 03:38:27;;;;;;;;;;;14.40;99.90;;;;;;5070571;28;19928;-74
2021/09/14 03:40:53;;;;;;;;;;;14.40;99.90;;;;;;5073999;28;20008;-74
2021/09/14 03:43:18;;;;;;;;;;;14.50;99.90;;;;;;5078534;28;19969;-74
2021/09/14 03:45:46;;;;;;;;;;;14.50;99.90;;;;;;5077633;28;19916;-74
2021/09/14 03:48:13;;;;;;;;;;;14.50;99.90;;;;;;5072225;28;20007;-74
2021/09/14 03:50:38;;;;;;;;;;;14.40;99.90;;;;;;5081743;28;20318;-74
2021/09/14 03:53:04;;;;;;;;;;;14.50;99.90;;;;;;5077481;28;20003;-74
2021/09/14 03:55:29;;;;;;;;;;;14.40;99.90;;;;;;5057900;28;19922;-74
2021/09/14 03:57:55;;;;;;;;;;;14.50;99.90;;;;;;5069205;28;19987;-74
2021/09/14 04:00:20;;;;;;;;;;;14.40;99.90;;;;;;5075584;28;19921;-74
2021/09/14 04:02:53;;;;;;;;;;;14.40;99.90;;;;;;5079872;28;19913;-74
2021/09/14 04:08:49;;;;;;;;;;;14.40;99.90;;;;;;5071403;28;19912;-74
2021/09/14 04:10:39;;;;;;;;;;;14.40;99.90;;;;;;5071871;28;19919;-74
2021/09/14 04:13:05;;;;;;;;;;;14.40;99.90;;;;;;5077027;28;19916;-74
2021/09/14 04:15:31;;;;;;;;;;;14.40;99.90;;;;;;5082351;28;19923;-74
2021/09/14 04:17:56;;;;;;;;;;;14.30;99.90;;;;;;5084500;28;19920;-74
2021/09/14 04:20:22;;;;;;;;;;;14.30;99.90;;;;;;5082341;28;19919;-74
2021/09/14 04:22:47;;;;;;;;;;;14.30;99.90;;;;;;5080472;28;19913;-74
2021/09/14 04:25:13;;;;;;;;;;;14.30;99.90;;;;;;5079346;28;20015;-74
2021/09/14 04:27:38;;;;;;;;;;;14.20;99.90;;;;;;5080427;28;19924;-74
2021/09/14 04:30:09;;;;;;;;;;;14.20;99.90;;;;;;5062841;28;19920;-74
2021/09/14 04:32:35;;;;;;;;;;;14.20;99.90;;;;;;5058533;28;20081;-74
2021/09/14 04:35:00;;;;;;;;;;;14.20;99.90;;;;;;5083784;28;20014;-74
2021/09/14 04:37:26;;;;;;;;;;;14.10;99.90;;;;;;5091335;28;20011;-74
2021/09/14 04:39:52;;;;;;;;;;;14.00;99.90;;;;;;5067453;28;20212;-74
2021/09/14 04:42:17;;;;;;;;;;;14.10;99.90;;;;;;5075800;28;20265;-74
2021/09/14 04:44:43;;;;;;;;;;;14.00;99.90;;;;;;5080124;28;19916;-74
2021/09/14 04:47:09;;;;;;;;;;;14.00;99.90;;;;;;5084000;28;19916;-74
2021/09/14 04:49:35;;;;;;;;;;;14.00;99.90;;;;;;5078195;28;19939;-74
2021/09/14 04:52:06;;;;;;;;;;;13.90;99.90;;;;;;5079212;28;20242;-74
2021/09/14 04:54:35;;;;;;;;;;;13.80;99.90;;;;;;5070331;28;20366;-74
2021/09/14 04:57:01;;;;;;;;;;;13.80;99.90;;;;;;5071836;28;20322;-74
2021/09/14 04:59:26;;;;;;;;;;;13.80;99.90;;;;;;5072123;28;20013;-74
2021/09/14 05:01:52;;;;;;;;;;;13.80;99.90;;;;;;5069377;28;20235;-74
2021/09/14 05:04:18;;;;;;;;;;;13.80;99.90;;;;;;5073691;28;19921;-74
2021/09/14 05:06:43;;;;;;;;;;;13.80;99.90;;;;;;5073992;28;19920;-74
2021/09/14 05:09:09;;;;;;;;;;;13.80;99.90;;;;;;5074046;28;19916;-74
2021/09/14 05:11:35;;;;;;;;;;;13.70;99.90;;;;;;5073214;28;19925;-75
2021/09/14 05:14:00;;;;;;;;;;;13.80;99.90;;;;;;5071772;28;20534;-74
2021/09/14 05:16:26;;;;;;;;;;;13.80;99.90;;;;;;5074010;28;19967;-74
2021/09/14 05:18:52;;;;;;;;;;;13.80;99.90;;;;;;5073735;28;20342;-74
2021/09/14 05:21:18;;;;;;;;;;;13.80;99.90;;;;;;5071895;28;19916;-74
2021/09/14 05:23:44;;;;;;;;;;;13.70;99.90;;;;;;5075394;28;19917;-74
2021/09/14 05:26:11;;;;;;;;;;;13.80;99.90;;;;;;5072689;28;20249;-74
2021/09/14 05:28:37;;;;;;;;;;;13.70;99.90;;;;;;5071555;28;20003;-74
2021/09/14 05:31:04;;;;;;;;;;;13.70;99.90;;;;;;5072584;28;19913;-75
2021/09/14 05:33:30;;;;;;;;;;;13.70;99.90;;;;;;5056719;28;20266;-74
2021/09/14 05:35:55;;;;;;;;;;;13.80;99.90;;;;;;5073193;28;19928;-75
2021/09/14 05:38:22;;;;;;;;;;;13.80;99.90;;;;;;5073415;28;19917;-74
2021/09/14 05:40:49;;;;;;;;;;;13.80;99.90;;;;;;5074683;28;19973;-74
2021/09/14 05:43:14;;;;;;;;;;;13.80;99.90;;;;;;5071326;28;20298;-75
2021/09/14 05:45:40;;;;;;;;;;;13.90;99.90;;;;;;5074077;28;19916;-75
2021/09/14 05:48:06;;;;;;;;;;;13.90;99.90;;;;;;5073195;28;19912;-74
2021/09/14 05:50:31;;;;;;;;;;;13.90;99.90;;;;;;5056452;28;19924;-74
2021/09/14 05:52:57;;;;;;;;;;;13.90;99.90;;;;;;5073333;28;19916;-74
2021/09/14 05:55:22;;;;;;;;;;;14.00;99.90;;;;;;5072464;28;19920;-74
2021/09/14 05:57:48;;;;;;;;;;;14.00;99.90;;;;;;5073085;28;19920;-75
2021/09/14 06:00:14;;;;;;;;;;;14.00;99.90;;;;;;5072633;28;19917;-74
2021/09/14 06:02:40;;;;;;;;;;;14.00;99.90;;;;;;5073080;28;19913;-74
2021/09/14 06:05:06;;;;;;;;;;;14.00;99.90;;;;;;5074928;28;19963;-74
2021/09/14 06:07:32;;;;;;;;;;;14.10;99.90;;;;;;5069046;28;19913;-74
2021/09/14 06:09:57;;;;;;;;;;;14.20;99.90;;;;;;5073405;28;19920;-74
2021/09/14 06:12:23;;;;;;;;;;;14.20;99.90;;;;;;5054670;28;19916;-74
2021/09/14 06:14:49;;;;;;;;;;;14.20;99.90;;;;;;5069365;28;19920;-74
2021/09/14 06:17:14;;;;;;;;;;;14.20;99.90;;;;;;5050455;28;19921;-74
2021/09/14 06:19:40;;;;;;;;;;;14.30;99.90;;;;;;5071678;28;19913;-74
2021/09/14 06:22:05;;;;;;;;;;;14.30;99.90;;;;;;5070468;28;19966;-74
2021/09/14 06:24:32;;;;;;;;;;;14.30;99.90;;;;;;5071048;28;19975;-73
2021/09/14 06:26:57;;;;;;;;;;;14.40;99.90;;;;;;5074047;28;20011;-74
2021/09/14 06:29:23;;;;;;;;;;;14.40;99.90;;;;;;5067498;28;20005;-74
2021/09/14 06:31:48;;;;;;;;;;;14.40;99.90;;;;;;5051817;28;19916;-74
2021/09/14 06:34:14;;;;;;;;;;;14.50;99.90;;;;;;5078342;28;19916;-74
2021/09/14 06:36:40;;;;;;;;;;;14.50;99.90;;;;;;5052364;28;20007;-74
2021/09/14 06:39:05;;;;;;;;;;;14.50;99.90;;;;;;5069021;28;19919;-74
2021/09/14 06:41:31;;;;;;;;;;;14.50;99.90;;;;;;5082134;28;20020;-75
2021/09/14 06:43:57;;;;;;;;;;;14.50;99.90;;;;;;5065952;28;19920;-74
2021/09/14 06:46:23;;;;;;;;;;;14.60;99.90;;;;;;5070315;28;19922;-74
2021/09/14 06:48:49;;;;;;;;;;;14.60;99.90;;;;;;5067636;28;20003;-74
2021/09/14 06:51:14;;;;;;;;;;;14.60;99.90;;;;;;5072218;28;20454;-74
2021/09/14 06:53:40;;;;;;;;;;;14.60;99.90;;;;;;5065620;28;19913;-74
2021/09/14 06:56:07;;;;;;;;;;;14.60;99.90;;;;;;5072434;28;19971;-74
2021/09/14 06:58:32;;;;;;;;;;;14.70;99.90;;;;;;5074323;28;19918;-74
2021/09/14 07:00:58;;;;;;;;;;;14.70;99.90;;;;;;5074945;28;19916;-74
2021/09/14 07:03:24;;;;;;;;;;;14.70;99.90;;;;;;5074915;28;19920;-74
2021/09/14 07:05:49;;;;;;;;;;;14.70;99.90;;;;;;5058575;28;19917;-74
2021/09/14 07:08:15;;;;;;;;;;;14.80;99.90;;;;;;5073061;28;19967;-74
2021/09/14 07:10:40;;;;;;;;;;;14.80;99.90;;;;;;5055353;28;20355;-74
2021/09/14 07:13:06;;;;;;;;;;;14.80;99.90;;;;;;5057613;28;19923;-74
2021/09/14 07:15:32;;;;;;;;;;;14.90;99.90;;;;;;5059867;28;19962;-74
2021/09/14 07:17:57;;;;;;;;;;;14.90;99.90;;;;;;5078042;28;19913;-74
2021/09/14 07:20:23;;;;;;;;;;;14.90;99.90;;;;;;5076253;28;19919;-74
2021/09/14 07:22:48;;;;;;;;;;;15.10;99.90;;;;;;5075440;28;19920;-74
2021/09/14 07:25:14;;;;;;;;;;;15.20;99.90;;;;;;5075715;28;19917;-74
2021/09/14 07:27:39;;;;;;;;;;;15.40;99.90;;;;;;5059020;28;19969;-74
2021/09/14 07:30:05;;;;;;;;;;;15.60;99.90;;;;;;5073648;28;19985;-74
2021/09/14 07:32:31;;;;;;;;;;;15.60;99.90;;;;;;5059416;28;19931;-75
2021/09/14 07:34:56;;;;;;;;;;;15.70;99.90;;;;;;5071345;28;19959;-74
2021/09/14 07:37:22;;;;;;;;;;;15.90;99.90;;;;;;5076388;28;19916;-74
2021/09/14 07:39:48;;;;;;;;;;;16.20;99.90;;;;;;5076210;28;20011;-74
2021/09/14 07:42:14;;;;;;;;;;;16.60;99.90;;;;;;5073543;28;19912;-75
2021/09/14 07:44:40;;;;;;;;;;;16.70;99.90;;;;;;5088513;28;19923;-74
2021/09/14 07:47:05;;;;;;;;;;;16.90;99.90;;;;;;5061163;28;19924;-74
2021/09/14 07:49:31;;;;;;;;;;;16.90;99.90;;;;;;5083185;28;20227;-74
2021/09/14 07:51:57;;;;;;;;;;;17.00;99.90;;;;;;5077452;28;19912;-74
2021/09/14 07:54:22;;;;;;;;;;;17.10;99.90;;;;;;5085261;28;19934;-75
2021/09/14 07:56:49;;;;;;;;;;;17.20;99.90;;;;;;5081825;28;19958;-74
2021/09/14 07:59:15;;;;;;;;;;;17.40;99.90;;;;;;5073495;28;19919;-74
2021/09/14 08:01:40;;;;;;;;;;;17.60;99.90;;;;;;5051875;28;20007;-75
2021/09/14 08:04:06;;;;;;;;;;;17.70;99.90;;;;;;5067033;28;19969;-75
2021/09/14 08:06:32;;;;;;;;;;;17.90;99.90;;;;;;5085551;28;19913;-75
2021/09/14 08:08:57;;;;;;;;;;;18.10;99.90;;;;;;5081712;28;19912;-75
2021/09/14 08:11:23;;;;;;;;;;;18.30;99.90;;;;;;5084024;28;20214;-75
2021/09/14 08:13:51;;;;;;;;;;;18.60;99.90;;;;;;5084449;28;19916;-74
2021/09/14 08:16:17;;;;;;;;;;;18.70;99.90;;;;;;5079039;28;20022;-74
2021/09/14 08:18:42;;;;;;;;;;;18.60;99.90;;;;;;5079292;28;19912;-74
2021/09/14 08:21:08;;;;;;;;;;;18.70;99.90;;;;;;5058866;28;20338;-74
2021/09/14 08:23:34;;;;;;;;;;;18.70;99.90;;;;;;5082694;28;19959;-75
2021/09/14 08:26:00;;;;;;;;;;;18.90;99.90;;;;;;5061622;28;20307;-74
2021/09/14 08:28:26;;;;;;;;;;;19.20;99.90;;;;;;5080350;28;19956;-75
2021/09/14 08:30:51;;;;;;;;;;;19.30;99.90;;;;;;5076320;28;19925;-74
2021/09/14 08:33:18;;;;;;;;;;;19.60;99.90;;;;;;5057807;28;20219;-74
2021/09/14 08:35:43;;;;;;;;;;;19.80;99.90;;;;;;5058544;28;21424;-75
2021/09/14 08:38:09;;;;;;;;;;;19.80;99.90;;;;;;5084507;28;19937;-75
2021/09/14 08:40:34;;;;;;;;;;;19.70;99.90;;;;;;5084600;28;19912;-74
2021/09/14 08:43:00;;;;;;;;;;;19.60;99.90;;;;;;5080990;28;19912;-74
2021/09/14 08:45:26;;;;;;;;;;;19.30;99.90;;;;;;5059498;28;19955;-75
2021/09/14 08:47:52;;;;;;;;;;;19.10;99.90;;;;;;5059717;28;19921;-74
2021/09/14 08:50:20;;;;;;;;;;;18.90;99.90;;;;;;5078985;28;19931;-74
2021/09/14 08:52:45;;;;;;;;;;;18.70;99.90;;;;;;5083475;28;19918;-74
2021/09/14 08:55:11;;;;;;;;;;;18.50;99.90;;;;;;5076127;28;20274;-75
2021/09/14 08:57:37;;;;;;;;;;;18.40;99.90;;;;;;5079390;28;20401;-75
2021/09/14 09:00:03;;;;;;;;;;;18.50;99.90;;;;;;5076199;28;20346;-75
2021/09/14 09:02:29;;;;;;;;;;;18.70;99.90;;;;;;5073120;28;19923;-75
2021/09/14 09:04:56;;;;;;;;;;;18.90;99.90;;;;;;5057386;28;19912;-75
2021/09/14 09:07:33;;;;;;;;;;;19.00;99.90;;;;;;5072167;28;20402;-75
2021/09/14 09:10:13;;;;;;;;;;;19.20;99.90;;;;;;5072988;28;19917;-74
2021/09/14 09:12:40;;;;;;;;;;;19.30;99.90;;;;;;5078190;28;19916;-75
2021/09/14 09:15:07;;;;;;;;;;;19.50;99.90;;;;;;5066657;28;19912;-75
2021/09/14 09:17:33;;;;;;;;;;;19.60;99.90;;;;;;5073149;28;19971;-75
2021/09/14 09:20:06;;;;;;;;;;;19.80;99.90;;;;;;5077274;28;20001;-75
2021/09/14 09:22:34;;;;;;;;;;;19.80;99.90;;;;;;5049078;28;19962;-75
2021/09/14 09:25:00;;;;;;;;;;;19.60;99.90;;;;;;5075221;28;19919;-75
2021/09/14 09:27:27;;;;;;;;;;;19.70;99.90;;;;;;5073940;28;19912;-75
2021/09/14 09:29:59;;;;;;;;;;;19.90;99.90;;;;;;5072610;28;19923;-76
2021/09/14 09:32:25;;;;;;;;;;;20.00;99.90;;;;;;5075498;28;19912;-75
2021/09/14 09:34:58;;;;;;;;;;;20.10;99.90;;;;;;5067313;28;20231;-75
2021/09/14 09:37:23;;;;;;;;;;;20.20;99.90;;;;;;5068491;28;20026;-75
2021/09/14 09:39:52;;;;;;;;;;;20.20;99.90;;;;;;5051612;28;21507;-75
2021/09/14 09:42:19;;;;;;;;;;;20.10;99.90;;;;;;5080717;28;19924;-76
2021/09/14 09:44:55;;;;;;;;;;;20.10;99.90;;;;;;5073039;28;19923;-76
2021/09/14 09:47:21;;;;;;;;;;;20.00;99.90;;;;;;5057069;28;19917;-75
2021/09/14 09:49:47;;;;;;;;;;;20.10;99.90;;;;;;5079374;28;19915;-76
2021/09/14 09:52:13;;;;;;;;;;;20.30;99.90;;;;;;5069086;28;19969;-74
2021/09/14 09:54:39;;;;;;;;;;;20.40;99.90;;;;;;5076840;28;20006;-75
2021/09/14 09:57:08;;;;;;;;;;;20.40;99.90;;;;;;5072261;28;19920;-74
2021/09/14 09:59:34;;;;;;;;;;;20.40;99.90;;;;;;5076490;28;19920;-76
2021/09/14 10:02:08;;;;;;;;;;;20.50;99.90;;;;;;5073461;28;20322;-75
2021/09/14 10:05:02;;;;;;;;;;;20.60;99.90;;;;;;5067273;28;20479;-76
2021/09/14 10:07:29;;;;;;;;;;;20.60;99.90;;;;;;5057893;28;19943;-77
2021/09/14 10:09:56;;;;;;;;;;;20.70;99.90;;;;;;5074563;28;19970;-77
2021/09/14 10:12:27;;;;;;;;;;;20.70;99.90;;;;;;5048084;28;19963;-77
2021/09/14 10:15:04;;;;;;;;;;;20.70;99.90;;;;;;5047506;28;19912;-77
2021/09/14 10:17:29;;;;;;;;;;;20.80;99.90;;;;;;5052316;28;19963;-77
2021/09/14 10:19:55;;;;;;;;;;;20.80;99.90;;;;;;5051759;28;19955;-77
2021/09/14 10:22:23;;;;;;;;;;;20.90;99.90;;;;;;5070514;28;19921;-77
2021/09/14 10:24:49;;;;;;;;;;;20.90;99.90;;;;;;5073453;28;19920;-78
2021/09/14 10:27:15;;;;;;;;;;;20.90;99.90;;;;;;5056840;28;19912;-78
2021/09/14 10:29:41;;;;;;;;;;;20.90;99.90;;;;;;5054667;28;20439;-77
2021/09/14 10:32:08;;;;;;;;;;;20.90;99.90;;;;;;5082865;28;19916;-77
2021/09/14 10:34:39;;;;;;;;;;;20.90;99.90;;;;;;5053534;28;20030;-77
2021/09/14 10:37:07;;;;;;;;;;;20.90;99.90;;;;;;5042660;28;20299;-77
2021/09/14 10:39:34;;;;;;;;;;;21.00;99.90;;;;;;5040048;28;19919;-77
2021/09/14 10:42:10;;;;;;;;;;;21.00;99.90;;;;;;5043747;28;19996;-77
2021/09/14 10:44:36;;;;;;;;;;;21.10;99.90;;;;;;5042345;28;20335;-76
2021/09/14 10:47:09;;;;;;;;;;;21.20;99.90;;;;;;5044626;28;20000;-77
2021/09/14 10:49:41;;;;;;;;;;;21.20;99.90;;;;;;5047295;28;20011;-77
2021/09/14 10:52:06;;;;;;;;;;;21.30;99.90;;;;;;5044005;28;19913;-77
2021/09/14 10:54:32;;;;;;;;;;;21.30;99.90;;;;;;5045920;28;19940;-77
2021/09/14 10:56:59;;;;;;;;;;;21.40;99.90;;;;;;5040214;28;19921;-77
2021/09/14 10:59:25;;;;;;;;;;;21.40;99.90;;;;;;5042251;28;19917;-78
2021/09/14 11:01:51;;;;;;;;;;;21.60;99.90;;;;;;5035218;28;19923;-77
2021/09/14 11:04:24;;;;;;;;;;;21.60;99.90;;;;;;5037659;28;19912;-77
2021/09/14 11:06:50;;;;;;;;;;;21.70;99.90;;;;;;5046124;28;20338;-76
2021/09/14 11:09:17;;;;;;;;;;;21.80;99.90;;;;;;5028079;28;19913;-76
2021/09/14 11:11:48;;;;;;;;;;;21.80;99.90;;;;;;5028570;28;20495;-75
2021/09/14 11:14:14;;;;;;;;;;;21.80;99.90;;;;;;5037006;28;19924;-77
2021/09/14 11:16:39;;;;;;;;;;;21.90;99.90;;;;;;5036272;28;19917;-76
2021/09/14 11:19:05;;;;;;;;;;;21.90;99.90;;;;;;5030323;28;19986;-76
2021/09/14 11:21:30;;;;;;;;;;;21.90;99.90;;;;;;5027268;28;19923;-76
2021/09/14 11:23:56;;;;;;;;;;;21.90;99.90;;;;;;5034888;28;20011;-76
2021/09/14 11:26:22;;;;;;;;;;;22.00;99.90;;;;;;5020745;28;19918;-75
2021/09/14 11:28:58;;;;;;;;;;;22.20;99.90;;;;;;5031126;28;20240;-76
2021/09/14 11:31:25;;;;;;;;;;;22.30;99.90;;;;;;5033334;28;19917;-75
2021/09/14 11:33:52;;;;;;;;;;;22.30;99.90;;;;;;5042086;28;20309;-75
2021/09/14 11:36:17;;;;;;;;;;;22.20;99.90;;;;;;5072693;28;20046;-75
2021/09/14 11:38:43;;;;;;;;;;;22.20;99.90;;;;;;5073694;28;20003;-74
2021/09/14 11:41:10;;;;;;;;;;;22.20;99.90;;;;;;5075054;28;20243;-76
2021/09/14 11:43:35;;;;;;;;;;;22.20;99.90;;;;;;5072673;28;20436;-75
2021/09/14 11:46:17;;;;;;;;;;;22.30;99.90;;;;;;5072344;28;19921;-75
2021/09/14 11:48:53;;;;;;;;;;;22.40;99.90;;;;;;5075233;28;19916;-74
2021/09/14 11:51:19;;;;;;;;;;;22.40;99.90;;;;;;5072736;28;20410;-75
2021/09/14 11:53:49;;;;;;;;;;;22.50;99.90;;;;;;5052296;28;19970;-75
2021/09/14 11:56:16;;;;;;;;;;;22.50;99.90;;;;;;5073738;28;19921;-76
2021/09/14 11:58:43;;;;;;;;;;;22.60;99.90;;;;;;5071555;28;20426;-76
2021/09/14 12:01:09;;;;;;;;;;;22.60;99.90;;;;;;5055385;28;19927;-74
2021/09/14 12:03:35;;;;;;;;;;;22.70;99.90;;;;;;5072649;28;19970;-76
2021/09/14 12:06:01;;;;;;;;;;;22.70;99.90;;;;;;5071320;28;19917;-76
2021/09/14 12:08:27;;;;;;;;;;;22.70;99.90;;;;;;5062351;28;19916;-76
2021/09/14 12:10:53;;;;;;;;;;;22.80;99.90;;;;;;5071700;28;19916;-74
2021/09/14 12:13:19;;;;;;;;;;;22.80;99.90;;;;;;5072778;28;19916;-75
2021/09/14 12:15:49;;;;;;;;;;;22.80;99.90;;;;;;5051677;28;19917;-76
2021/09/14 12:18:15;;;;;;;;;;;22.90;99.90;;;;;;5054427;28;19971;-75
2021/09/14 12:20:45;;;;;;;;;;;22.90;99.90;;;;;;5069533;28;19923;-76
2021/09/14 12:23:11;;;;;;;;;;;22.80;99.90;;;;;;5054280;28;20366;-76
2021/09/14 12:25:37;;;;;;;;;;;22.90;99.90;;;;;;5053485;28;19947;-75
2021/09/14 12:28:02;;;;;;;;;;;22.90;99.90;;;;;;5072157;28;20296;-76
2021/09/14 12:30:28;;;;;;;;;;;23.00;99.90;;;;;;5072709;28;20025;-75
2021/09/14 12:32:53;;;;;;;;;;;23.10;99.90;;;;;;5070152;28;19920;-76
2021/09/14 12:35:19;;;;;;;;;;;23.00;99.90;;;;;;5045632;28;19935;-75
2021/09/14 12:37:44;;;;;;;;;;;23.00;99.90;;;;;;5041062;28;19920;-75
2021/09/14 12:40:10;;;;;;;;;;;23.00;99.90;;;;;;5038778;28;19917;-76
2021/09/14 12:42:36;;;;;;;;;;;23.10;99.90;;;;;;5033633;28;19921;-75
2021/09/14 12:45:02;;;;;;;;;;;23.10;99.90;;;;;;5034094;28;19928;-76
2021/09/14 12:47:27;;;;;;;;;;;23.10;99.90;;;;;;5022962;28;20021;-75
2021/09/14 12:49:53;;;;;;;;;;;23.20;99.90;;;;;;5028977;28;19917;-75
2021/09/14 12:52:19;;;;;;;;;;;23.10;99.90;;;;;;5031938;28;19917;-76
2021/09/14 12:54:44;;;;;;;;;;;23.00;99.90;;;;;;5032917;28;20232;-76
2021/09/14 12:57:10;;;;;;;;;;;23.00;99.90;;;;;;5027474;28;20206;-76
2021/09/14 12:59:35;;;;;;;;;;;22.90;99.90;;;;;;5037725;28;19952;-75
2021/09/14 13:02:01;;;;;;;;;;;22.90;99.90;;;;;;5032402;28;20007;-76
2021/09/14 13:04:27;;;;;;;;;;;22.90;99.90;;;;;;5031013;28;19948;-77
2021/09/14 13:06:52;;;;;;;;;;;22.90;99.90;;;;;;5031871;28;19924;-76
2021/09/14 13:09:18;;;;;;;;;;;22.80;99.90;;;;;;5036003;28;20054;-77
2021/09/14 13:11:43;;;;;;;;;;;22.80;99.90;;;;;;5033294;28;19917;-78
2021/09/14 13:16:53;;;;;;;;;;;22.70;99.90;;;;;;5033615;28;19994;-79
2021/09/14 13:19:19;;;;;;;;;;;22.70;99.90;;;;;;5032487;28;20359;-79
2021/09/14 13:21:44;;;;;;;;;;;22.60;99.90;;;;;;5036756;28;19917;-79
2021/09/14 13:24:10;;;;;;;;;;;22.60;99.90;;;;;;5038006;28;19916;-78
2021/09/14 13:26:36;;;;;;;;;;;22.60;99.90;;;;;;5036768;28;20041;-79
2021/09/14 13:29:01;;;;;;;;;;;22.60;99.90;;;;;;5034297;28;19932;-78
2021/09/14 13:31:27;;;;;;;;;;;22.60;99.90;;;;;;5038307;28;20361;-77
2021/09/14 13:33:54;;;;;;;;;;;22.70;99.90;;;;;;5038970;28;19984;-76
2021/09/14 13:36:20;;;;;;;;;;;22.80;99.90;;;;;;5064865;28;19920;-78
2021/09/14 13:38:46;;;;;;;;;;;22.80;99.90;;;;;;5055693;28;20208;-81
2021/09/14 13:41:15;;;;;;;;;;;22.70;99.90;;;;;;5047365;28;19927;-78
2021/09/14 13:46:11;;;;;;;;;;;22.60;99.90;;;;;;5072974;28;19920;-78
2021/09/14 13:48:38;;;;;;;;;;;22.60;99.90;;;;;;5047820;28;19924;-79
2021/09/14 13:51:04;;;;;;;;;;;22.60;99.90;;;;;;5069037;28;19916;-79
2021/09/14 13:53:30;;;;;;;;;;;22.60;99.90;;;;;;5050997;28;19979;-79
2021/09/14 13:55:55;;;;;;;;;;;22.50;99.90;;;;;;5048441;28;19920;-78
2021/09/14 13:58:21;;;;;;;;;;;22.50;99.90;;;;;;5071294;28;20660;-78
2021/09/14 14:00:47;;;;;;;;;;;22.50;99.90;;;;;;5072293;28;19921;-79
2021/09/14 14:03:12;;;;;;;;;;;22.40;99.90;;;;;;5052418;28;19943;-79
2021/09/14 14:05:38;;;;;;;;;;;22.40;99.90;;;;;;5057088;28;19924;-78
2021/09/14 14:08:03;;;;;;;;;;;22.40;99.90;;;;;;5075083;28;19923;-80
2021/09/14 14:10:29;;;;;;;;;;;22.40;99.90;;;;;;5074809;28;19967;-80
2021/09/14 14:12:55;;;;;;;;;;;22.30;99.90;;;;;;5076307;28;20007;-79
2021/09/14 14:15:20;;;;;;;;;;;22.30;99.90;;;;;;5072519;28;19920;-78
2021/09/14 14:17:46;;;;;;;;;;;22.20;99.90;;;;;;5074270;28;20031;-78
2021/09/14 14:20:12;;;;;;;;;;;22.20;99.90;;;;;;5075971;28;19920;-78
2021/09/14 14:22:38;;;;;;;;;;;22.20;99.90;;;;;;5077572;28;19923;-78
2021/09/14 14:25:04;;;;;;;;;;;22.10;99.90;;;;;;5072849;28;19960;-78
2021/09/14 14:27:29;;;;;;;;;;;22.10;99.90;;;;;;5056617;28;19917;-79
2021/09/14 14:29:55;;;;;;;;;;;22.10;99.90;;;;;;5066701;28;19927;-79
2021/09/14 14:32:20;;;;;;;;;;;22.10;99.90;;;;;;5057506;28;19943;-80
2021/09/14 14:34:46;;;;;;;;;;;22.00;99.90;;;;;;5077313;28;19972;-78
2021/09/14 14:37:12;;;;;;;;;;;22.00;99.90;;;;;;5076727;28;20334;-78
2021/09/14 14:39:37;;;;;;;;;;;21.90;99.90;;;;;;5077988;28;19916;-78
2021/09/14 14:42:03;;;;;;;;;;;21.90;99.90;;;;;;5058719;28;19917;-78
2021/09/14 14:44:28;;;;;;;;;;;21.80;99.90;;;;;;5077301;28;19917;-78
2021/09/14 14:46:54;;;;;;;;;;;21.80;99.90;;;;;;5078279;28;19963;-78
2021/09/14 14:49:19;;;;;;;;;;;21.70;99.90;;;;;;5074987;28;19919;-78
2021/09/14 14:51:45;;;;;;;;;;;21.80;99.90;;;;;;5058667;28;19912;-78
2021/09/14 14:54:10;;;;;;;;;;;21.70;99.90;;;;;;5057756;28;19923;-78
2021/09/14 14:56:40;;;;;;;;;;;21.70;99.90;;;;;;5065303;28;19960;-78
2021/09/14 14:59:06;;;;;;;;;;;21.70;99.90;;;;;;5057431;28;20296;-78
2021/09/14 15:01:31;;;;;;;;;;;21.60;99.90;;;;;;5059926;28;19976;-78
2021/09/14 15:03:57;;;;;;;;;;;21.60;99.90;;;;;;5072774;28;20215;-78
2021/09/14 15:06:22;;;;;;;;;;;21.60;99.90;;;;;;5072747;28;19923;-77
2021/09/14 15:08:48;;;;;;;;;;;21.60;99.90;;;;;;5077042;28;19917;-78
2021/09/14 15:11:13;;;;;;;;;;;21.60;99.90;;;;;;5071808;28;19924;-78
2021/09/14 15:13:39;;;;;;;;;;;21.50;99.90;;;;;;5069930;28;19919;-78